Time;durP1;ratioP1;P1;durP2;ratioP2;P2;SDS_P1;SDS_P2;PMS_P1;PMS_P2;Temp;Humidity;BMP_temperature;BMP_pressure;BME280_temperature;BME280_humidity;BME280_pressure;Samples;Min_cycle;Max_cycle;Signal;HPM_P1;HPM_P2
2022/05/02 00:01:33;;;;;;;8.45;7.60;;;9.10;99.90;;;;;;5012573;28;20022;-72
2022/05/02 00:03:59;;;;;;;9.25;8.18;;;9.10;99.90;;;;;;5011546;28;20030;-72
2022/05/02 00:06:24;;;;;;;8.65;6.97;;;9.00;99.90;;;;;;5012457;28;20149;-72
2022/05/02 00:08:50;;;;;;;8.13;7.32;;;9.00;99.90;;;;;;5011380;28;20056;-73
2022/05/02 00:11:15;;;;;;;9.38;8.23;;;8.90;99.90;;;;;;5012303;28;20386;-72
2022/05/02 00:13:41;;;;;;;8.70;7.78;;;9.00;99.90;;;;;;5012245;28;20030;-72
2022/05/02 00:16:07;;;;;;;8.13;7.15;;;9.00;99.90;;;;;;5011536;28;20357;-71
2022/05/02 00:18:32;;;;;;;7.72;7.03;;;9.00;99.90;;;;;;5012254;28;20034;-72
2022/05/02 00:20:58;;;;;;;9.15;8.05;;;8.90;99.90;;;;;;5011990;28;20506;-73
2022/05/02 00:23:23;;;;;;;10.63;7.95;;;8.80;99.90;;;;;;5011565;28;20037;-72
2022/05/02 00:25:50;;;;;;;11.18;8.10;;;8.80;99.90;;;;;;5011854;28;20022;-73
2022/05/02 00:28:15;;;;;;;8.38;7.03;;;8.80;99.90;;;;;;5012211;28;20132;-73
2022/05/02 00:30:42;;;;;;;9.77;7.63;;;8.80;99.90;;;;;;5011651;28;20481;-73
2022/05/02 00:33:08;;;;;;;20.05;8.80;;;8.70;99.90;;;;;;5012113;28;20073;-73
2022/05/02 00:35:33;;;;;;;9.10;7.72;;;8.70;99.90;;;;;;5012238;28;20057;-73
2022/05/02 00:37:59;;;;;;;7.70;6.68;;;8.70;99.90;;;;;;5010963;28;20034;-72
2022/05/02 00:40:25;;;;;;;7.25;6.65;;;8.60;99.90;;;;;;5012085;28;20022;-73
2022/05/02 00:42:50;;;;;;;11.52;7.22;;;8.60;99.90;;;;;;5011641;28;20021;-73
2022/05/02 00:45:18;;;;;;;8.73;6.85;;;8.60;99.90;;;;;;5011268;28;20036;-73
2022/05/02 00:47:53;;;;;;;7.68;6.88;;;8.60;99.90;;;;;;5012223;28;20034;-73
2022/05/02 00:50:40;;;;;;;10.35;7.38;;;8.60;99.90;;;;;;5012008;28;20041;-73
2022/05/02 00:53:12;;;;;;;8.02;7.22;;;8.60;99.90;;;;;;5010977;28;20033;-72
2022/05/02 00:55:38;;;;;;;8.18;7.22;;;8.50;99.90;;;;;;5011645;28;20049;-72
2022/05/02 00:58:04;;;;;;;8.57;7.72;;;8.40;99.90;;;;;;5012048;28;20091;-73
2022/05/02 01:00:31;;;;;;;9.02;7.53;;;8.40;99.90;;;;;;5015685;28;20109;-72
2022/05/02 01:02:57;;;;;;;10.23;8.07;;;8.40;99.90;;;;;;5015507;28;20057;-72
2022/05/02 01:05:23;;;;;;;8.98;7.65;;;8.40;99.90;;;;;;5014442;28;20437;-73
2022/05/02 01:07:49;;;;;;;9.80;8.15;;;8.30;99.90;;;;;;5015121;28;20084;-73
2022/05/02 01:10:17;;;;;;;8.55;7.30;;;8.30;99.90;;;;;;5015657;28;20026;-73
2022/05/02 01:12:47;;;;;;;10.20;7.68;;;8.30;99.90;;;;;;5014772;28;20033;-73
2022/05/02 01:15:13;;;;;;;12.25;7.53;;;8.30;99.90;;;;;;5015666;28;20087;-73
2022/05/02 01:17:39;;;;;;;9.70;7.43;;;8.40;99.90;;;;;;5015352;28;20067;-72
2022/05/02 01:20:09;;;;;;;14.15;8.55;;;8.30;99.90;;;;;;5014956;28;20387;-73
2022/05/02 01:22:35;;;;;;;10.45;8.57;;;8.20;99.90;;;;;;5015270;28;20034;-73
2022/05/02 01:25:00;;;;;;;13.45;7.93;;;8.20;99.90;;;;;;5014923;28;20045;-73
2022/05/02 01:27:26;;;;;;;11.70;7.57;;;8.20;99.90;;;;;;5014646;28;20064;-73
2022/05/02 01:29:52;;;;;;;9.10;7.72;;;8.10;99.90;;;;;;5014946;28;20060;-73
2022/05/02 01:32:17;;;;;;;12.00;8.65;;;8.10;99.90;;;;;;5015197;28;20474;-72
2022/05/02 01:34:43;;;;;;;9.25;8.35;;;8.10;99.90;;;;;;5014236;28;20569;-73
2022/05/02 01:37:11;;;;;;;11.15;8.25;;;8.10;99.90;;;;;;5014605;28;20053;-73
2022/05/02 01:39:37;;;;;;;9.02;8.07;;;8.00;99.90;;;;;;5015011;28;20030;-71
2022/05/02 01:42:05;;;;;;;11.07;8.65;;;8.00;99.90;;;;;;5014023;28;20033;-71
2022/05/02 01:44:30;;;;;;;9.15;8.25;;;8.00;99.90;;;;;;5014707;28;20040;-71
2022/05/02 01:46:56;;;;;;;11.05;8.05;;;8.00;99.90;;;;;;5014467;28;20482;-71
2022/05/02 01:49:22;;;;;;;10.68;8.00;;;8.00;99.90;;;;;;5014064;28;20029;-72
2022/05/02 01:51:48;;;;;;;8.27;7.47;;;8.00;99.90;;;;;;5014317;28;20029;-72
2022/05/02 01:54:14;;;;;;;12.65;8.20;;;7.90;99.90;;;;;;5014667;28;20109;-72
2022/05/02 01:56:40;;;;;;;9.77;7.93;;;7.90;99.90;;;;;;5013652;28;20461;-72
2022/05/02 01:59:07;;;;;;;10.18;9.00;;;7.80;99.90;;;;;;5014106;28;20050;-72
2022/05/02 02:01:32;;;;;;;9.95;8.93;;;7.90;99.90;;;;;;5013612;28;20129;-71
2022/05/02 02:06:47;;;;;;;9.43;8.32;;;7.90;99.90;;;;;;5014437;28;20101;-71
2022/05/02 02:09:13;;;;;;;9.55;8.60;;;7.80;99.90;;;;;;5013073;28;20081;-72
2022/05/02 02:11:38;;;;;;;10.52;8.98;;;7.80;99.90;;;;;;5014355;28;20021;-72
2022/05/02 02:14:04;;;;;;;12.80;8.60;;;7.80;99.90;;;;;;5014005;28;20046;-72
2022/05/02 02:16:29;;;;;;;13.77;8.80;;;7.70;99.90;;;;;;5013399;28;20029;-71
2022/05/02 02:18:55;;;;;;;15.45;9.25;;;7.70;99.90;;;;;;5013802;28;20029;-72
2022/05/02 02:21:20;;;;;;;12.88;9.00;;;7.70;99.90;;;;;;5014336;28;20072;-72
2022/05/02 02:23:46;;;;;;;14.55;9.88;;;7.60;99.90;;;;;;5013435;28;20026;-72
2022/05/02 02:26:12;;;;;;;10.45;8.45;;;7.60;99.90;;;;;;5013954;28;20026;-72
2022/05/02 02:28:38;;;;;;;14.40;9.05;;;7.60;99.90;;;;;;5013940;28;20025;-72
2022/05/02 02:31:04;;;;;;;15.23;8.73;;;7.60;99.90;;;;;;5012877;28;20109;-72
2022/05/02 02:33:30;;;;;;;10.57;9.50;;;7.60;99.90;;;;;;5013824;28;20444;-72
2022/05/02 02:35:56;;;;;;;14.05;8.93;;;7.50;99.90;;;;;;5013731;28;20033;-72
2022/05/02 02:38:21;;;;;;;10.13;9.13;;;7.50;99.90;;;;;;5013179;28;20041;-72
2022/05/02 02:40:47;;;;;;;9.90;8.90;;;7.50;99.90;;;;;;5013823;28;20022;-72
2022/05/02 02:43:12;;;;;;;10.50;9.43;;;7.20;99.90;;;;;;5013716;28;20437;-72
2022/05/02 02:45:38;;;;;;;11.60;9.45;;;7.40;99.90;;;;;;5012841;28;20029;-72
2022/05/02 02:48:04;;;;;;;9.63;8.63;;;7.40;99.90;;;;;;5013644;28;20022;-73
2022/05/02 02:50:30;;;;;;;9.98;8.43;;;7.40;99.90;;;;;;5013725;28;20029;-72
2022/05/02 02:52:56;;;;;;;10.60;9.50;;;7.40;99.90;;;;;;5012744;28;20470;-72
2022/05/02 02:55:21;;;;;;;11.32;9.25;;;7.30;99.90;;;;;;5013176;28;20053;-72
2022/05/02 02:57:47;;;;;;;12.80;9.85;;;7.30;99.90;;;;;;5012758;28;20038;-72
2022/05/02 03:00:13;;;;;;;11.07;8.90;;;7.30;99.90;;;;;;5013450;28;20486;-72
2022/05/02 03:02:40;;;;;;;10.98;9.85;;;7.30;99.90;;;;;;5012991;28;20042;-72
2022/05/02 03:07:50;;;;;;;10.65;9.50;;;7.20;99.90;;;;;;5013023;28;20143;-72
2022/05/02 03:10:17;;;;;;;11.98;9.73;;;7.20;99.90;;;;;;5013259;28;20109;-72
2022/05/02 03:12:42;;;;;;;9.93;8.77;;;7.30;99.90;;;;;;5012502;28;20042;-72
2022/05/02 03:15:08;;;;;;;11.15;9.57;;;7.20;99.90;;;;;;5013215;28;20110;-72
2022/05/02 03:17:34;;;;;;;11.40;9.90;;;7.20;99.90;;;;;;5013137;28;20033;-72
2022/05/02 03:19:59;;;;;;;13.30;10.05;;;7.20;99.90;;;;;;5011722;28;20053;-72
2022/05/02 03:22:25;;;;;;;15.50;11.50;;;7.10;99.90;;;;;;5012745;28;20030;-72
2022/05/02 03:24:50;;;;;;;15.18;9.35;;;7.10;99.90;;;;;;5012707;28;20064;-72
2022/05/02 03:27:16;;;;;;;13.20;10.30;;;7.10;99.90;;;;;;5012180;28;20087;-73
2022/05/02 03:29:42;;;;;;;15.38;10.63;;;7.10;99.90;;;;;;5012788;28;20557;-73
2022/05/02 03:32:08;;;;;;;11.10;8.98;;;7.00;99.90;;;;;;5012729;28;20120;-73
2022/05/02 03:34:33;;;;;;;14.27;9.85;;;7.00;99.90;;;;;;5012559;28;20022;-73
2022/05/02 03:36:59;;;;;;;11.32;9.98;;;7.00;99.90;;;;;;5012580;28;20113;-72
2022/05/02 03:39:24;;;;;;;17.00;9.65;;;7.00;99.90;;;;;;5012742;28;20057;-72
2022/05/02 03:41:50;;;;;;;15.00;10.48;;;6.90;99.90;;;;;;5012188;28;20068;-72
2022/05/02 03:44:15;;;;;;;9.95;8.95;;;6.90;99.90;;;;;;5012612;28;20026;-72
2022/05/02 03:46:41;;;;;;;11.88;10.07;;;6.90;99.90;;;;;;5012746;28;20185;-72
2022/05/02 03:49:07;;;;;;;11.70;9.52;;;6.90;99.90;;;;;;5011630;28;20030;-71
2022/05/02 03:51:32;;;;;;;11.45;9.93;;;6.90;99.90;;;;;;5012343;28;20032;-72
2022/05/02 03:53:58;;;;;;;10.07;9.10;;;6.90;99.90;;;;;;5011360;28;20029;-72
2022/05/02 03:56:23;;;;;;;11.85;10.07;;;6.90;99.90;;;;;;5012103;28;20084;-71
2022/05/02 03:58:49;;;;;;;14.20;10.55;;;6.80;99.90;;;;;;5011841;28;20456;-72
2022/05/02 04:01:14;;;;;;;12.82;9.80;;;6.80;99.90;;;;;;5011685;28;20018;-71
2022/05/02 04:03:40;;;;;;;13.70;10.27;;;6.80;99.90;;;;;;5012381;28;20489;-72
2022/05/02 04:06:05;;;;;;;16.35;10.70;;;6.70;99.90;;;;;;5011875;28;20084;-73
2022/05/02 04:08:31;;;;;;;13.77;9.95;;;6.80;99.90;;;;;;5011547;28;20524;-73
2022/05/02 04:10:57;;;;;;;14.05;10.45;;;6.80;99.90;;;;;;5011811;28;20026;-73
2022/05/02 04:13:22;;;;;;;13.95;10.27;;;6.80;99.90;;;;;;5012027;28;20429;-73
2022/05/02 04:15:49;;;;;;;12.45;10.18;;;6.80;99.90;;;;;;5011315;28;20034;-73
2022/05/02 04:18:15;;;;;;;14.50;10.50;;;6.70;99.90;;;;;;5012276;28;20178;-73
2022/05/02 04:20:41;;;;;;;13.30;10.40;;;6.80;99.90;;;;;;5012231;28;20080;-72
2022/05/02 04:23:06;;;;;;;13.60;10.75;;;6.70;99.90;;;;;;5011295;28;20030;-71
2022/05/02 04:25:32;;;;;;;14.13;10.25;;;6.70;99.90;;;;;;5012038;28;20037;-72
2022/05/02 04:27:57;;;;;;;11.10;10.00;;;6.70;99.90;;;;;;5011593;28;20037;-72
2022/05/02 04:30:23;;;;;;;14.90;11.23;;;6.80;99.90;;;;;;5011162;28;20064;-72
2022/05/02 04:32:48;;;;;;;14.27;10.80;;;6.70;99.90;;;;;;5014046;28;20096;-72
2022/05/02 04:35:14;;;;;;;25.90;11.07;;;6.70;99.90;;;;;;5016101;28;20018;-72
2022/05/02 04:37:40;;;;;;;12.35;10.45;;;6.80;99.90;;;;;;5015338;28;20452;-72
2022/05/02 04:40:06;;;;;;;15.73;11.48;;;6.80;99.90;;;;;;5015576;28;20105;-72
2022/05/02 04:42:32;;;;;;;14.70;11.32;;;6.90;99.90;;;;;;5015774;28;20117;-72
2022/05/02 04:44:58;;;;;;;12.88;11.15;;;6.90;99.90;;;;;;5014957;28;20113;-71
2022/05/02 04:47:23;;;;;;;12.55;9.82;;;6.90;99.90;;;;;;5015970;28;20101;-72
2022/05/02 04:49:49;;;;;;;15.60;11.18;;;6.90;99.90;;;;;;5015588;28;20342;-71
2022/05/02 04:52:14;;;;;;;14.95;10.75;;;6.90;99.90;;;;;;5015036;28;20080;-73
2022/05/02 04:54:40;;;;;;;13.98;11.13;;;6.90;99.90;;;;;;5015667;28;20030;-72
2022/05/02 04:57:06;;;;;;;12.70;10.10;;;7.00;99.90;;;;;;5015096;28;20041;-71
2022/05/02 04:59:32;;;;;;;21.35;11.50;;;7.00;99.90;;;;;;5015380;28;20030;-72
2022/05/02 05:01:58;;;;;;;12.10;9.77;;;7.00;99.90;;;;;;5015256;28;20385;-72
2022/05/02 05:04:24;;;;;;;13.85;11.18;;;7.00;99.90;;;;;;5014873;28;20454;-72
2022/05/02 05:06:49;;;;;;;13.27;10.48;;;7.10;99.90;;;;;;5015171;28;20026;-72
2022/05/02 05:09:15;;;;;;;13.55;11.50;;;7.10;99.90;;;;;;5015439;28;20036;-72
2022/05/02 05:12:03;;;;;;;14.20;10.75;;;7.10;99.90;;;;;;5014532;28;20022;-72
2022/05/02 05:18:04;;;;;;;14.80;11.18;;;7.30;99.90;;;;;;5015147;28;20080;-72
2022/05/02 05:20:52;;;;;;;15.10;11.75;;;7.30;99.90;;;;;;5012728;28;20475;-72
2022/05/02 05:23:45;;;;;;;14.40;10.48;;;7.50;99.90;;;;;;5015178;28;20028;-73
2022/05/02 05:26:46;;;;;;;14.63;10.75;;;7.50;99.90;;;;;;5014017;28;20033;-73
2022/05/02 05:29:13;;;;;;;13.48;11.50;;;7.50;99.90;;;;;;5014679;28;20068;-72
2022/05/02 05:31:38;;;;;;;13.95;10.50;;;7.50;99.90;;;;;;5015046;28;20382;-71
2022/05/02 05:34:26;;;;;;;12.52;10.77;;;7.60;99.90;;;;;;5014161;28;20030;-71
2022/05/02 05:37:07;;;;;;;11.30;10.13;;;7.70;99.90;;;;;;5014473;28;20033;-71
2022/05/02 05:39:40;;;;;;;13.65;11.30;;;7.70;99.90;;;;;;5014102;28;20117;-72
2022/05/02 05:42:52;;;;;;;13.85;11.57;;;7.80;99.90;;;;;;5014688;28;20033;-72
2022/05/02 05:45:46;;;;;;;13.95;11.35;;;7.80;99.90;;;;;;5002209;28;20034;-72
2022/05/02 05:48:33;;;;;;;14.95;11.35;;;7.90;99.90;;;;;;5013574;28;20021;-72
2022/05/02 05:51:07;;;;;;;16.67;12.45;;;8.00;99.90;;;;;;5014325;28;20025;-71
2022/05/02 05:53:36;;;;;;;13.00;11.38;;;8.00;99.90;;;;;;5014046;28;20034;-71
2022/05/02 05:56:13;;;;;;;12.25;10.93;;;8.00;99.90;;;;;;5013997;28;20184;-72
2022/05/02 05:59:18;;;;;;;12.40;10.93;;;8.10;99.90;;;;;;5014488;28;20117;-72
2022/05/02 06:02:08;;;;;;;15.48;11.73;;;8.20;99.90;;;;;;5012366;28;20029;-72
2022/05/02 06:04:36;;;;;;;14.00;12.10;;;8.20;99.90;;;;;;5014259;28;20030;-72
2022/05/02 06:07:02;;;;;;;15.20;11.88;;;8.30;99.90;;;;;;5013994;28;20032;-73
2022/05/02 06:09:29;;;;;;;13.45;11.45;;;8.30;99.90;;;;;;5013557;28;20845;-73
2022/05/02 06:11:59;;;;;;;11.95;10.73;;;8.40;99.90;;;;;;5012629;28;20033;-72
2022/05/02 06:20:16;;;;;;;12.93;11.57;;;8.60;99.90;;;;;;5014241;28;20033;-72
2022/05/02 06:22:42;;;;;;;15.50;12.35;;;8.60;99.90;;;;;;5013225;28;20080;-73
2022/05/02 06:25:09;;;;;;;14.57;12.05;;;8.70;99.90;;;;;;5013971;28;20371;-72
2022/05/02 06:27:38;;;;;;;12.02;10.82;;;8.80;99.90;;;;;;5014023;28;20108;-72
2022/05/02 06:30:04;;;;;;;12.70;11.40;;;8.80;99.90;;;;;;5012791;28;20488;-72
2022/05/02 06:32:30;;;;;;;15.90;12.68;;;8.90;99.90;;;;;;5013945;28;20030;-72
2022/05/02 06:34:56;;;;;;;21.40;13.73;;;9.00;99.90;;;;;;5013299;28;20067;-72
2022/05/02 06:37:34;;;;;;;16.77;12.25;;;9.10;99.90;;;;;;5013249;28;20061;-72
2022/05/02 06:40:06;;;;;;;20.63;13.30;;;9.20;99.90;;;;;;5013306;28;20029;-71
2022/05/02 06:43:08;;;;;;;17.70;13.02;;;9.20;99.90;;;;;;5013661;28;20037;-72
2022/05/02 06:46:11;;;;;;;18.08;12.85;;;9.30;99.90;;;;;;5013674;28;20531;-72
2022/05/02 06:48:45;;;;;;;17.77;12.95;;;9.40;99.90;;;;;;5013653;28;20080;-72
2022/05/02 06:51:18;;;;;;;16.25;12.15;;;9.50;99.90;;;;;;5012664;28;20414;-72
2022/05/02 06:53:46;;;;;;;13.55;12.15;;;9.50;99.90;;;;;;5013493;28;20029;-72
2022/05/02 06:56:32;;;;;;;18.48;13.98;;;9.60;99.90;;;;;;5013111;28;20053;-71
2022/05/02 06:59:07;;;;;;;17.63;13.02;;;9.70;99.90;;;;;;5012548;28;20061;-72
2022/05/02 07:01:43;;;;;;;18.33;13.77;;;9.80;99.90;;;;;;5013411;28;20033;-72
2022/05/02 07:04:31;;;;;;;18.42;13.77;;;10.00;99.90;;;;;;5012374;28;20053;-72
2022/05/02 07:07:10;;;;;;;16.45;13.40;;;10.10;99.90;;;;;;5013062;28;20049;-71
2022/05/02 07:09:48;;;;;;;13.18;11.88;;;10.20;99.90;;;;;;5013385;28;20361;-72
2022/05/02 07:12:19;;;;;;;16.15;12.80;;;10.20;99.90;;;;;;5012561;28;20091;-72
2022/05/02 07:14:59;;;;;;;16.77;13.20;;;10.40;99.90;;;;;;5013281;28;20033;-73
2022/05/02 07:18:04;;;;;;;16.70;12.73;;;10.40;99.90;;;;;;5012998;28;20034;-73
2022/05/02 07:21:07;;;;;;;22.40;13.07;;;10.50;99.90;;;;;;5009416;28;20516;-72
2022/05/02 07:24:02;;;;;;;18.23;14.10;;;10.60;99.90;;;;;;5013164;28;20415;-72
2022/05/02 07:26:30;;;;;;;16.80;13.77;;;10.80;99.90;;;;;;5012281;28;20365;-71
2022/05/02 07:29:00;;;;;;;15.88;12.02;;;10.80;99.90;;;;;;5012477;28;20046;-72
2022/05/02 07:31:27;;;;;;;17.45;13.75;;;10.90;99.90;;;;;;5012839;28;20045;-72
2022/05/02 07:33:54;;;;;;;16.08;13.10;;;11.10;99.90;;;;;;5011843;28;20122;-71
2022/05/02 07:36:22;;;;;;;16.05;12.95;;;11.20;99.90;;;;;;5012965;28;20113;-72
2022/05/02 07:39:03;;;;;;;17.80;13.07;;;11.30;99.90;;;;;;5012452;28;20042;-72
2022/05/02 07:41:32;;;;;;;15.10;13.20;;;11.40;99.90;;;;;;5012593;28;20355;-72
2022/05/02 07:44:03;;;;;;;16.40;13.43;;;11.50;99.90;;;;;;5012549;28;20056;-72
2022/05/02 07:46:35;;;;;;;19.75;12.63;;;11.60;99.90;;;;;;5011890;28;20572;-72
2022/05/02 07:49:02;;;;;;;20.00;14.43;;;11.70;99.90;;;;;;5012260;28;20030;-73
2022/05/02 07:51:29;;;;;;;14.93;11.82;;;11.80;99.90;;;;;;5012572;28;20053;-73
2022/05/02 07:53:57;;;;;;;14.27;12.57;;;11.80;99.90;;;;;;5011443;28;20474;-73
2022/05/02 07:56:27;;;;;;;17.08;12.98;;;11.80;99.90;;;;;;5012320;28;20062;-73
2022/05/02 07:58:54;;;;;;;15.80;13.02;;;11.90;99.90;;;;;;5012199;28;20137;-73
2022/05/02 08:01:24;;;;;;;16.75;13.27;;;11.90;99.90;;;;;;5011629;28;20053;-73
2022/05/02 08:03:51;;;;;;;15.73;13.13;;;12.10;99.90;;;;;;5012145;28;20092;-73
2022/05/02 08:06:54;;;;;;;15.38;12.95;;;12.10;99.90;;;;;;5012033;28;20327;-73
2022/05/02 08:09:38;;;;;;;16.90;13.68;;;12.30;99.90;;;;;;5011803;28;20021;-72
2022/05/02 08:12:07;;;;;;;15.43;12.98;;;12.30;99.90;;;;;;5012056;28;20076;-73
2022/05/02 08:15:09;;;;;;;18.13;13.63;;;12.40;99.90;;;;;;5011596;28;20109;-73
2022/05/02 08:17:53;;;;;;;16.10;14.05;;;12.40;99.90;;;;;;5012240;28;20033;-73
2022/05/02 08:20:46;;;;;;;20.42;12.80;;;12.50;99.90;;;;;;5012221;28;20025;-73
2022/05/02 08:29:29;;;;;;;16.00;12.18;;;12.70;99.90;;;;;;5011189;28;20033;-73
2022/05/02 08:32:14;;;;;;;15.90;12.48;;;12.80;99.90;;;;;;5011927;28;20044;-72
2022/05/02 08:34:39;;;;;;;14.38;11.98;;;12.90;99.90;;;;;;5011947;28;20116;-73
2022/05/02 08:37:13;;;;;;;16.63;13.25;;;12.90;99.90;;;;;;5010859;28;20120;-72
2022/05/02 08:39:58;;;;;;;14.75;12.35;;;13.10;99.90;;;;;;5012004;28;20022;-73
2022/05/02 08:42:44;;;;;;;14.60;10.25;;;13.10;99.90;;;;;;5011426;28;20057;-73
2022/05/02 08:45:27;;;;;;;14.23;11.02;;;13.10;99.90;;;;;;5011794;28;20053;-72
2022/05/02 08:48:15;;;;;;;16.70;12.38;;;13.20;99.90;;;;;;5011647;28;20040;-72
2022/05/02 08:50:59;;;;;;;17.95;12.23;;;13.20;99.90;;;;;;5011020;28;20393;-73
2022/05/02 08:53:52;;;;;;;15.35;12.15;;;13.20;99.90;;;;;;5012049;28;20034;-72
2022/05/02 08:56:55;;;;;;;15.20;12.45;;;13.30;99.90;;;;;;5011056;28;20135;-73
2022/05/02 08:59:49;;;;;;;15.98;11.48;;;13.50;99.90;;;;;;5012008;28;20030;-72
2022/05/02 09:02:20;;;;;;;15.65;12.15;;;13.50;99.90;;;;;;5011910;28;20041;-73
2022/05/02 09:04:55;;;;;;;16.52;10.50;;;13.60;99.90;;;;;;5011083;28;20094;-73
2022/05/02 09:07:46;;;;;;;12.98;10.10;;;13.60;99.90;;;;;;5012001;28;20022;-73
2022/05/02 09:10:15;;;;;;;11.75;10.43;;;13.70;99.90;;;;;;5011682;28;20026;-73
2022/05/02 09:12:46;;;;;;;11.70;10.50;;;13.80;98.90;;;;;;5011051;28;20433;-73
2022/05/02 09:15:18;;;;;;;11.38;10.15;;;13.80;98.70;;;;;;5011248;28;20025;-73
2022/05/02 09:18:13;;;;;;;10.55;9.35;;;13.80;98.40;;;;;;5011214;28;20148;-73
2022/05/02 09:20:49;;;;;;;10.90;8.45;;;13.90;97.90;;;;;;5014952;28;20544;-72
2022/05/02 09:23:49;;;;;;;11.68;9.10;;;13.90;97.80;;;;;;5015175;28;20037;-72
2022/05/02 09:26:44;;;;;;;10.77;9.13;;;13.90;97.00;;;;;;5014593;28;20022;-72
2022/05/02 09:29:28;;;;;;;12.50;8.95;;;14.00;97.60;;;;;;5014814;28;20022;-73
2022/05/02 09:32:08;;;;;;;10.93;8.32;;;14.00;98.00;;;;;;5014022;28;20029;-72
2022/05/02 09:34:56;;;;;;;14.07;9.95;;;14.20;96.60;;;;;;5014987;28;20363;-72
2022/05/02 09:37:39;;;;;;;10.63;8.90;;;14.20;96.30;;;;;;5014968;28;20050;-72
2022/05/02 09:40:12;;;;;;;10.10;7.63;;;14.30;96.60;;;;;;5013917;28;20504;-73
2022/05/02 09:43:05;;;;;;;10.18;8.07;;;14.40;96.10;;;;;;5014683;28;20419;-72
2022/05/02 09:51:55;;;;;;;9.95;7.93;;;14.60;95.00;;;;;;5014914;28;20034;-73
2022/05/02 09:57:43;;;;;;;8.75;7.90;;;14.70;95.00;;;;;;4996995;28;20097;-72
2022/05/02 10:03:29;;;;;;;10.52;7.97;;;14.80;94.60;;;;;;5014394;28;20073;-72
2022/05/02 10:06:08;;;;;;;8.80;8.00;;;14.90;94.80;;;;;;5014382;28;20056;-72
2022/05/02 10:08:55;;;;;;;14.98;8.45;;;15.10;94.20;;;;;;5013808;28;20026;-73
2022/05/02 10:11:34;;;;;;;9.60;7.43;;;15.20;93.80;;;;;;5014189;28;20466;-73
2022/05/02 10:14:43;;;;;;;12.70;9.35;;;15.20;93.00;;;;;;5013166;28;20030;-73
2022/05/02 10:17:13;;;;;;;10.32;7.13;;;15.20;93.20;;;;;;5013978;28;20033;-73
2022/05/02 10:20:18;;;;;;;9.13;6.65;;;15.20;92.20;;;;;;5014089;28;20041;-73
2022/05/02 10:22:50;;;;;;;8.60;7.57;;;15.20;92.00;;;;;;5011193;28;20073;-73
2022/05/02 10:25:18;;;;;;;10.68;7.70;;;15.10;92.40;;;;;;5011901;28;20026;-73
2022/05/02 10:28:02;;;;;;;9.75;7.80;;;15.20;92.30;;;;;;5012388;28;20038;-73
2022/05/02 10:30:42;;;;;;;10.93;7.10;;;15.30;92.40;;;;;;5013377;28;20034;-73
2022/05/02 10:33:14;;;;;;;14.07;8.30;;;15.30;92.80;;;;;;5013757;28;20030;-73
2022/05/02 10:35:45;;;;;;;8.90;7.97;;;15.40;92.50;;;;;;5013238;28;20030;-72
2022/05/02 10:38:26;;;;;;;12.50;7.22;;;15.50;92.40;;;;;;5013487;28;20403;-73
2022/05/02 10:40:58;;;;;;;8.85;8.02;;;15.60;91.50;;;;;;5013320;28;20030;-73
2022/05/02 10:43:25;;;;;;;8.95;8.05;;;15.60;91.40;;;;;;5013419;28;20104;-72
2022/05/02 10:45:52;;;;;;;10.30;8.40;;;15.60;91.40;;;;;;5013576;28;20485;-74
2022/05/02 10:48:17;;;;;;;13.50;8.30;;;15.60;91.10;;;;;;5014096;28;20047;-73
2022/05/02 10:51:05;;;;;;;10.65;7.85;;;15.40;91.70;;;;;;5013036;28;20030;-73
2022/05/02 10:54:00;;;;;;;7.93;7.13;;;15.60;91.80;;;;;;5013806;28;20033;-73
2022/05/02 10:56:28;;;;;;;8.18;6.90;;;15.70;91.30;;;;;;5012507;28;20050;-73
2022/05/02 10:58:54;;;;;;;11.68;7.57;;;15.70;90.90;;;;;;5013050;28;20474;-73
2022/05/02 11:01:40;;;;;;;7.78;7.05;;;15.80;90.70;;;;;;5013327;28;20034;-73
2022/05/02 11:04:22;;;;;;;7.75;7.05;;;15.80;91.10;;;;;;5012422;28;20026;-73
2022/05/02 11:06:56;;;;;;;7.60;6.45;;;15.90;91.10;;;;;;5013014;28;20501;-73
2022/05/02 11:09:35;;;;;;;8.77;7.00;;;16.00;90.40;;;;;;5013409;28;20114;-73
2022/05/02 11:12:03;;;;;;;9.65;8.02;;;16.10;91.00;;;;;;5012005;28;20033;-73
2022/05/02 11:14:58;;;;;;;12.40;8.27;;;16.10;90.80;;;;;;5013571;28;20037;-73
2022/05/02 11:17:37;;;;;;;9.52;7.65;;;16.30;90.90;;;;;;5012433;28;20076;-73
2022/05/02 11:23:24;;;;;;;7.50;6.57;;;16.30;89.10;;;;;;5012980;28;20044;-73
2022/05/02 11:25:58;;;;;;;10.02;8.32;;;16.40;90.30;;;;;;5011989;28;20026;-72
2022/05/02 11:28:41;;;;;;;8.52;7.72;;;16.40;89.70;;;;;;5012963;28;20085;-72
2022/05/02 11:31:27;;;;;;;12.93;7.78;;;16.40;90.10;;;;;;5012083;28;20022;-73
2022/05/02 11:34:11;;;;;;;9.88;8.60;;;16.40;90.00;;;;;;5012669;28;20057;-72
2022/05/02 11:36:43;;;;;;;9.63;8.73;;;16.40;88.60;;;;;;5012762;28;20018;-72
2022/05/02 11:39:18;;;;;;;9.25;8.45;;;16.40;90.30;;;;;;5011599;28;20046;-72
2022/05/02 11:41:47;;;;;;;13.07;8.77;;;16.30;89.50;;;;;;5012199;28;20088;-72
2022/05/02 11:44:13;;;;;;;10.80;8.55;;;16.20;90.20;;;;;;5011456;28;20029;-72
2022/05/02 11:47:00;;;;;;;14.45;8.52;;;16.20;90.50;;;;;;5011757;28;20348;-72
2022/05/02 11:50:01;;;;;;;9.35;8.40;;;16.30;89.80;;;;;;5012536;28;20029;-72
2022/05/02 11:52:38;;;;;;;10.18;8.93;;;16.30;89.00;;;;;;5011963;28;20714;-72
2022/05/02 11:55:06;;;;;;;10.25;8.27;;;16.30;89.50;;;;;;5012061;28;20022;-73
2022/05/02 11:57:38;;;;;;;9.30;8.40;;;16.40;90.10;;;;;;5012393;28;20087;-72
2022/05/02 12:00:10;;;;;;;11.48;8.02;;;16.50;91.00;;;;;;5011369;28;20032;-73
2022/05/02 12:02:52;;;;;;;10.00;8.25;;;16.50;89.80;;;;;;5012317;28;20029;-72
2022/05/02 12:05:17;;;;;;;10.27;8.35;;;16.50;90.30;;;;;;5012510;28;20106;-72
2022/05/02 12:07:54;;;;;;;9.25;8.45;;;16.60;90.00;;;;;;5011727;28;20394;-72
2022/05/02 12:10:30;;;;;;;9.65;8.65;;;16.60;91.20;;;;;;5012136;28;20115;-72
2022/05/02 12:12:57;;;;;;;12.18;9.02;;;16.80;90.10;;;;;;5012142;28;20441;-72
2022/05/02 12:15:26;;;;;;;10.52;7.90;;;16.70;88.40;;;;;;5011560;28;20030;-72
2022/05/02 12:18:03;;;;;;;14.25;7.57;;;16.60;90.00;;;;;;5011774;28;20034;-72
2022/05/02 12:20:35;;;;;;;8.00;7.20;;;16.70;89.90;;;;;;5011631;28;20037;-72
2022/05/02 12:23:07;;;;;;;8.45;7.53;;;16.80;89.70;;;;;;5011931;28;20092;-72
2022/05/02 12:25:34;;;;;;;10.20;7.50;;;16.80;89.30;;;;;;5012078;28;20021;-73
2022/05/02 12:28:03;;;;;;;9.88;6.88;;;16.90;89.50;;;;;;5011324;28;20025;-73
2022/05/02 12:30:30;;;;;;;7.43;6.80;;;16.90;90.80;;;;;;5012340;28;20022;-73
2022/05/02 12:33:06;;;;;;;8.77;7.93;;;16.90;88.80;;;;;;5011915;28;20137;-73
2022/05/02 12:35:40;;;;;;;9.15;8.30;;;16.90;89.00;;;;;;5011406;28;20033;-72
2022/05/02 12:38:23;;;;;;;8.07;7.28;;;16.80;89.30;;;;;;5011913;28;20037;-72
2022/05/02 12:40:52;;;;;;;7.55;6.88;;;16.90;90.10;;;;;;5011744;28;20490;-72
2022/05/02 12:43:40;;;;;;;7.13;6.43;;;17.10;87.90;;;;;;5011368;28;20097;-72
2022/05/02 12:46:10;;;;;;;8.82;8.02;;;16.80;86.30;;;;;;5011726;28;20509;-72
2022/05/02 12:48:41;;;;;;;7.63;6.93;;;16.90;87.40;;;;;;5011195;28;20486;-72
2022/05/02 12:51:15;;;;;;;6.53;5.82;;;17.10;87.00;;;;;;5011691;28;20130;-72
2022/05/02 12:56:25;;;;;;;9.82;8.18;;;17.40;85.60;;;;;;5014786;28;20111;-72
2022/05/02 13:02:01;;;;;;;7.07;6.43;;;17.40;82.30;;;;;;5015610;28;20029;-72
2022/05/02 13:04:28;;;;;;;9.00;6.88;;;17.50;84.10;;;;;;5013635;28;20053;-72
2022/05/02 13:06:58;;;;;;;7.90;6.22;;;17.60;84.40;;;;;;5015273;28;20084;-72
2022/05/02 13:09:36;;;;;;;6.88;5.93;;;17.80;83.00;;;;;;5015917;28;20033;-72
2022/05/02 13:12:16;;;;;;;7.78;5.65;;;17.70;82.90;;;;;;5015119;28;20037;-72
2022/05/02 13:14:44;;;;;;;6.57;5.68;;;17.70;83.20;;;;;;5015511;28;20026;-71
2022/05/02 13:17:13;;;;;;;8.27;6.70;;;17.80;83.70;;;;;;5014022;28;20053;-73
2022/05/02 13:19:41;;;;;;;6.88;5.82;;;17.70;81.80;;;;;;5015437;28;20065;-73
2022/05/02 13:22:07;;;;;;;5.28;4.88;;;17.70;80.70;;;;;;5015027;28;20029;-73
2022/05/02 13:24:32;;;;;;;5.70;4.78;;;17.80;82.60;;;;;;5014487;28;20446;-73
2022/05/02 13:27:13;;;;;;;6.75;4.75;;;17.60;80.80;;;;;;5014897;28;20022;-73
2022/05/02 13:30:00;;;;;;;5.32;4.55;;;17.70;80.90;;;;;;5015084;28;20394;-73
2022/05/02 13:32:31;;;;;;;6.80;6.18;;;17.80;81.50;;;;;;5014362;28;20540;-72
2022/05/02 13:35:06;;;;;;;7.20;6.50;;;17.90;82.80;;;;;;5014719;28;20029;-73
2022/05/02 13:37:37;;;;;;;5.05;4.07;;;17.80;82.30;;;;;;5014958;28;20493;-72
2022/05/02 13:40:02;;;;;;;7.43;6.80;;;18.00;82.20;;;;;;5014486;28;20120;-72
2022/05/02 13:43:11;;;;;;;7.78;6.07;;;17.90;81.80;;;;;;5015252;28;20102;-72
2022/05/02 13:45:51;;;;;;;5.85;5.35;;;18.00;79.30;;;;;;5014284;28;20022;-73
2022/05/02 13:48:38;;;;;;;6.77;4.23;;;18.10;80.70;;;;;;5014704;28;20053;-73
2022/05/02 13:51:32;;;;;;;6.25;5.28;;;18.40;79.60;;;;;;5014572;28;20033;-72
2022/05/02 13:54:00;;;;;;;4.60;4.20;;;18.60;76.70;;;;;;5013170;28;20042;-73